Terminal Aerodrome Forecast
Issued by NWS

Current Version | Previous Version | Graphics & Text | Print | Product List | Glossary On
Versions: 1 2 3 4 5 6 7 8 9 10 11 12 13 14 15 16 17 18 19 20 21 22 23 24 25
000
FTUS41 KRLX 260500
TAFCKB
TAF
KCKB 260537Z 2606/2706 VRB03KT P6SM SCT060
     FM261300 19008KT P6SM BKN045
     FM261500 22012G20KT P6SM BKN050
     FM261800 23014G25KT P6SM VCTS BKN045CB
     FM262000 29012G22KT 5SM SHRA BKN035
     FM262200 31010G17KT 3SM -SHRA BKN025
     FM270000 32007KT 4SM -SHRA OVC015=

USA.gov is the U.S. government's official web portal to all federal, state and local government web resources and services.